Time;durP1;ratioP1;P1;durP2;ratioP2;P2;SDS_P1;SDS_P2;PMS_P1;PMS_P2;Temp;Humidity;BMP_temperature;BMP_pressure;BME280_temperature;BME280_humidity;BME280_pressure;Samples;Min_cycle;Max_cycle;Signal;HPM_P1;HPM_P2
2022/11/27 00:01:19;;;;;;;10.63;4.35;;;5.50;99.90;;;;;;5071933;28;20495;-60
2022/11/27 00:03:46;;;;;;;10.18;3.65;;;5.50;99.90;;;;;;5072323;28;20467;-60
2022/11/27 00:06:15;;;;;;;9.75;3.60;;;5.50;99.90;;;;;;5071902;28;20875;-60
2022/11/27 00:08:43;;;;;;;8.25;3.72;;;5.40;99.90;;;;;;5072022;28;20814;-60
2022/11/27 00:11:11;;;;;;;9.65;3.72;;;5.40;99.90;;;;;;5071852;28;20419;-60
2022/11/27 00:13:38;;;;;;;9.95;3.80;;;5.30;99.90;;;;;;5071862;28;20412;-60
2022/11/27 00:16:06;;;;;;;12.00;4.22;;;5.30;99.90;;;;;;5071686;28;20473;-60
2022/11/27 00:18:33;;;;;;;13.00;4.20;;;5.30;99.90;;;;;;5071951;28;20874;-60
2022/11/27 00:21:03;;;;;;;11.07;4.00;;;5.30;99.90;;;;;;5071755;28;20813;-60
2022/11/27 00:23:31;;;;;;;9.63;4.07;;;5.30;99.90;;;;;;5071965;28;20454;-60
2022/11/27 00:25:58;;;;;;;10.88;4.20;;;5.20;99.90;;;;;;5071475;28;20411;-60
2022/11/27 00:28:25;;;;;;;10.35;3.88;;;5.30;99.90;;;;;;5071712;28;20446;-60
2022/11/27 00:30:52;;;;;;;9.93;3.83;;;5.20;99.90;;;;;;5070839;28;20426;-60
2022/11/27 00:33:18;;;;;;;9.85;4.10;;;5.20;99.90;;;;;;5071574;28;20914;-60
2022/11/27 00:35:45;;;;;;;8.18;4.15;;;5.20;99.90;;;;;;5071309;28;20423;-60
2022/11/27 00:38:12;;;;;;;11.77;3.88;;;5.20;99.90;;;;;;5071218;28;20419;-60
2022/11/27 00:40:40;;;;;;;10.73;4.25;;;5.20;99.90;;;;;;5071682;28;20418;-60
2022/11/27 00:43:06;;;;;;;9.75;3.78;;;5.10;99.90;;;;;;5071512;28;20442;-60
2022/11/27 00:45:33;;;;;;;10.82;4.30;;;5.20;99.90;;;;;;5071211;28;20412;-60
2022/11/27 00:48:00;;;;;;;10.50;4.10;;;5.20;99.90;;;;;;5071203;28;20427;-60
2022/11/27 00:50:30;;;;;;;10.38;4.10;;;5.20;99.90;;;;;;5071099;28;20473;-60
2022/11/27 00:52:57;;;;;;;7.80;3.50;;;5.20;99.90;;;;;;5071402;28;20459;-60
2022/11/27 00:55:23;;;;;;;9.43;4.03;;;5.20;99.90;;;;;;5071361;28;20420;-60
2022/11/27 00:57:51;;;;;;;9.20;3.73;;;5.10;99.90;;;;;;5070992;28;20537;-60
2022/11/27 01:00:19;;;;;;;13.32;4.38;;;5.10;99.90;;;;;;5071046;28;20821;-60
2022/11/27 01:02:45;;;;;;;10.63;3.80;;;5.10;99.90;;;;;;5070994;28;20415;-60
2022/11/27 01:05:12;;;;;;;9.63;3.97;;;5.00;99.90;;;;;;5071098;28;20419;-60
2022/11/27 01:07:40;;;;;;;9.77;3.90;;;5.00;99.90;;;;;;5071013;28;20415;-60
2022/11/27 01:10:08;;;;;;;9.93;3.95;;;5.00;99.90;;;;;;5070840;28;20431;-60
2022/11/27 01:12:34;;;;;;;9.18;4.03;;;5.00;99.90;;;;;;5070838;28;21020;-60
2022/11/27 01:15:02;;;;;;;8.23;3.85;;;5.00;99.90;;;;;;5070895;28;20415;-60
2022/11/27 01:17:29;;;;;;;12.10;3.95;;;5.00;99.90;;;;;;5070581;28;20755;-60
2022/11/27 01:19:56;;;;;;;9.15;3.90;;;5.00;99.90;;;;;;5070620;28;20414;-60
2022/11/27 01:22:23;;;;;;;8.50;4.10;;;5.00;99.90;;;;;;5070817;28;20414;-60
2022/11/27 01:24:49;;;;;;;9.43;3.93;;;5.00;99.90;;;;;;5070740;28;20442;-59
2022/11/27 01:27:16;;;;;;;7.60;4.15;;;5.00;99.90;;;;;;5057847;28;20470;-63
2022/11/27 01:29:43;;;;;;;6.32;3.78;;;5.00;99.90;;;;;;5065090;28;20445;-59
2022/11/27 01:32:11;;;;;;;7.83;3.70;;;5.00;99.90;;;;;;5070385;28;20556;-59
2022/11/27 01:34:37;;;;;;;7.15;4.22;;;5.00;99.90;;;;;;5070759;28;20418;-59
2022/11/27 01:37:04;;;;;;;15.30;4.93;;;5.00;99.90;;;;;;5070371;28;20499;-59
2022/11/27 01:39:31;;;;;;;7.57;3.53;;;4.90;99.90;;;;;;5070591;28;20415;-59
2022/11/27 01:41:57;;;;;;;9.25;3.72;;;5.00;99.90;;;;;;5070450;28;20457;-59
2022/11/27 01:44:55;;;;;;;8.83;3.80;;;5.00;97.80;;;;;;5070608;28;20415;-59
2022/11/27 01:47:34;;;;;;;7.90;3.88;;;5.10;96.30;;;;;;5008240;28;20427;-59
2022/11/27 01:50:13;;;;;;;9.10;4.07;;;5.00;91.40;;;;;;5061430;28;20427;-59
2022/11/27 01:52:45;;;;;;;11.45;4.13;;;5.00;96.50;;;;;;5070446;28;20416;-59
2022/11/27 01:55:17;;;;;;;6.82;4.05;;;5.00;95.00;;;;;;5070315;28;20419;-59
2022/11/27 01:57:49;;;;;;;8.15;3.97;;;4.90;93.50;;;;;;5070376;28;20455;-59
2022/11/27 02:00:17;;;;;;;7.85;3.90;;;5.00;93.50;;;;;;5070236;28;20888;-59
2022/11/27 02:02:45;;;;;;;6.93;4.10;;;5.00;85.80;;;;;;5070184;28;20550;-60
2022/11/27 02:05:15;;;;;;;9.60;3.80;;;5.10;74.10;;;;;;5070223;28;20415;-59
2022/11/27 02:07:42;;;;;;;10.57;4.30;;;5.00;76.50;;;;;;5070215;28;20416;-59
2022/11/27 02:10:10;;;;;;;7.47;3.80;;;4.90;79.60;;;;;;5070378;28;20427;-59
2022/11/27 02:12:49;;;;;;;8.45;4.22;;;4.90;77.70;;;;;;5070322;28;20809;-59
2022/11/27 02:15:22;;;;;;;8.45;4.40;;;4.80;86.60;;;;;;5070292;28;20415;-59
2022/11/27 02:17:57;;;;;;;5.82;3.70;;;4.80;92.20;;;;;;5069737;28;20461;-59
2022/11/27 02:20:40;;;;;;;10.13;4.53;;;4.90;80.30;;;;;;5069877;28;20403;-59
2022/11/27 02:23:21;;;;;;;8.98;4.20;;;4.90;73.10;;;;;;5069791;28;20419;-58
2022/11/27 02:26:01;;;;;;;7.50;4.28;;;4.90;62.70;;;;;;5070359;28;20427;-59
2022/11/27 02:28:41;;;;;;;9.20;4.13;;;4.80;64.60;;;;;;5070013;28;20407;-59
2022/11/27 02:31:15;;;;;;;8.77;4.40;;;4.80;73.30;;;;;;5069988;28;20925;-59
2022/11/27 02:33:46;;;;;;;7.50;3.83;;;4.80;64.90;;;;;;5069962;28;20407;-58
2022/11/27 02:36:17;;;;;;;8.90;4.35;;;4.80;54.80;;;;;;5069837;28;20428;-58
2022/11/27 02:38:47;;;;;;;7.55;4.38;;;4.80;59.00;;;;;;5069679;28;20428;-59
2022/11/27 02:41:19;;;;;;;8.87;4.57;;;4.90;47.40;;;;;;5070508;28;20419;-59
2022/11/27 02:43:48;;;;;;;6.73;3.50;;;4.90;45.70;;;;;;5071360;28;20202;-59
2022/11/27 02:46:18;;;;;;;8.17;4.00;;;4.90;38.80;;;;;;5070562;28;20222;-59
2022/11/27 02:48:47;;;;;;;4.37;3.17;;;4.80;46.30;;;;;;5070920;28;20613;-59
2022/11/27 02:51:16;;;;;;;8.30;3.50;;;4.70;54.80;;;;;;5071330;28;20203;-58
2022/11/27 02:53:48;;;;;;;6.13;3.10;;;4.80;49.30;;;;;;5072145;28;20910;-59
2022/11/27 02:56:18;;;;;;;7.20;3.93;;;4.80;49.60;;;;;;5074792;28;20455;-59
2022/11/27 02:58:47;;;;;;;5.00;3.63;;;4.70;48.70;;;;;;5074913;28;20212;-57
2022/11/27 03:01:18;;;;;;;6.63;3.73;;;4.70;45.10;;;;;;5074747;28;20457;-58
2022/11/27 03:03:48;;;;;;;6.67;2.90;;;4.80;43.60;;;;;;5074760;28;20452;-59
2022/11/27 03:06:18;;;;;;;7.63;4.13;;;4.80;42.00;;;;;;5074666;28;20676;-59
2022/11/27 03:08:52;;;;;;;6.80;4.00;;;4.80;42.10;;;;;;5074882;28;21030;-59
2022/11/27 03:11:18;;;;;;;7.23;3.53;;;4.80;42.90;;;;;;5074602;28;20221;-59
2022/11/27 03:13:48;;;;;;;9.20;3.47;;;4.80;39.60;;;;;;5074573;28;20480;-58
2022/11/27 03:16:24;;;;;;;8.23;4.03;;;4.70;44.50;;;;;;5074159;28;20451;-59
2022/11/27 03:18:58;;;;;;;8.50;3.87;;;4.70;43.20;;;;;;5075077;28;20443;-59
2022/11/27 03:21:31;;;;;;;7.30;4.38;;;4.70;41.90;;;;;;5073163;28;20873;-59
2022/11/27 03:23:58;;;;;;;9.38;4.80;;;4.70;40.50;;;;;;5072853;28;20415;-59
2022/11/27 03:26:25;;;;;;;9.93;3.57;;;4.80;34.40;;;;;;5073955;28;20209;-59
2022/11/27 03:28:53;;;;;;;8.47;3.43;;;4.80;28.70;;;;;;5074028;28;20225;-59
2022/11/27 03:31:22;;;;;;;5.37;3.27;;;4.70;29.80;;;;;;5074118;28;20506;-59
2022/11/27 03:33:49;;;;;;;10.18;4.00;;;4.80;25.30;;;;;;5072865;28;20412;-59
2022/11/27 03:36:18;;;;;;;10.32;4.40;;;4.80;25.00;;;;;;5072340;28;20492;-59
2022/11/27 03:38:46;;;;;;;10.75;4.57;;;4.80;22.60;;;;;;5072790;28;20416;-59
2022/11/27 03:41:21;;;;;;;7.60;4.50;;;4.90;11.10;;;;;;5072588;28;20411;-58
2022/11/27 03:43:58;;;;;;;8.95;4.82;;;4.90;7.10;;;;;;5072526;28;21016;-59
2022/11/27 03:46:39;;;;;;;8.48;4.35;;;4.90;6.90;;;;;;5072128;28;20473;-59
2022/11/27 03:49:14;;;;;;;10.95;4.85;;;5.00;3.10;;;;;;5072571;28;20473;-59
2022/11/27 03:51:51;;;;;;;9.60;5.20;;;4.90;5.20;;;;;;5072292;28;20400;-59
2022/11/27 03:54:26;;;;;;;9.07;4.90;;;4.90;6.30;;;;;;5072458;28;20420;-59
2022/11/27 03:56:57;;;;;;;10.18;5.13;;;5.10;1.00;;;;;;5072156;28;20461;-59
2022/11/27 03:59:27;;;;;;;9.45;4.63;;;5.10;1.00;;;;;;5072395;28;20419;-59
2022/11/27 04:01:55;;;;;;;12.23;5.28;;;5.10;1.00;;;;;;5072096;28;20908;-59
2022/11/27 04:04:21;;;;;;;9.95;5.10;;;5.10;1.00;;;;;;5072020;28;20465;-59
2022/11/27 04:06:48;;;;;;;12.50;5.30;;;5.10;1.00;;;;;;5072011;28;20416;-59
2022/11/27 04:09:15;;;;;;;8.60;4.63;;;5.20;1.00;;;;;;5071988;28;20910;-59
2022/11/27 04:11:41;;;;;;;11.98;5.30;;;5.20;1.00;;;;;;5072103;28;20896;-59
2022/11/27 04:14:08;;;;;;;11.65;5.05;;;5.30;1.00;;;;;;5072026;28;20808;-59
2022/11/27 04:16:35;;;;;;;11.63;5.10;;;5.30;1.00;;;;;;5071604;28;20414;-59
2022/11/27 04:19:03;;;;;;;10.32;4.97;;;5.30;1.00;;;;;;5071928;28;20419;-59
2022/11/27 04:21:29;;;;;;;10.48;4.90;;;5.30;1.00;;;;;;5071893;28;20415;-59
2022/11/27 04:23:56;;;;;;;12.40;5.35;;;5.30;1.00;;;;;;5071695;28;20422;-60
2022/11/27 04:26:23;;;;;;;8.85;4.45;;;5.40;1.00;;;;;;5071680;28;20420;-60
2022/11/27 04:28:50;;;;;;;10.65;4.60;;;5.40;1.00;;;;;;5071771;28;20419;-59
2022/11/27 04:31:17;;;;;;;9.15;5.07;;;5.50;1.00;;;;;;5071460;28;20426;-60
2022/11/27 04:33:44;;;;;;;9.82;4.93;;;5.50;1.00;;;;;;5071410;28;20415;-60
2022/11/27 04:36:12;;;;;;;9.15;4.80;;;5.50;1.00;;;;;;5071505;28;20437;-60
2022/11/27 04:38:38;;;;;;;10.40;4.88;;;5.60;1.00;;;;;;5071306;28;20433;-59
2022/11/27 04:41:05;;;;;;;11.23;4.63;;;5.60;1.00;;;;;;5071630;28;20473;-58
2022/11/27 04:43:32;;;;;;;12.65;5.38;;;5.70;1.00;;;;;;5071438;28;20419;-58
2022/11/27 04:45:58;;;;;;;11.07;5.25;;;5.70;1.00;;;;;;5070910;28;20407;-59
2022/11/27 04:48:25;;;;;;;9.77;5.23;;;5.70;1.00;;;;;;5071206;28;20937;-60
2022/11/27 04:50:54;;;;;;;10.32;4.70;;;5.70;1.00;;;;;;5071140;28;20832;-59
2022/11/27 04:53:22;;;;;;;8.10;4.72;;;5.60;1.00;;;;;;5071209;28;20416;-59
2022/11/27 04:55:50;;;;;;;11.05;5.65;;;5.60;1.00;;;;;;5072196;28;20423;-59
2022/11/27 04:58:17;;;;;;;9.23;5.25;;;5.60;1.00;;;;;;5070641;28;20951;-59
2022/11/27 05:00:43;;;;;;;10.05;5.57;;;5.60;1.00;;;;;;5070983;28;20806;-60
2022/11/27 05:03:10;;;;;;;9.93;4.77;;;5.70;1.00;;;;;;5071214;28;20870;-59
2022/11/27 05:05:37;;;;;;;9.63;5.05;;;5.80;1.00;;;;;;5071105;28;20416;-59
2022/11/27 05:08:04;;;;;;;11.00;4.90;;;5.70;1.00;;;;;;5070760;28;20467;-57
2022/11/27 05:10:32;;;;;;;13.35;5.35;;;5.70;1.00;;;;;;5070920;28;20963;-59
2022/11/27 05:12:59;;;;;;;11.70;4.85;;;5.70;1.00;;;;;;5070778;28;20422;-59
2022/11/27 05:15:25;;;;;;;11.05;5.15;;;5.70;1.00;;;;;;5070643;28;20489;-58
2022/11/27 05:17:52;;;;;;;10.13;5.20;;;5.60;1.00;;;;;;5070631;28;20407;-57
2022/11/27 05:20:19;;;;;;;9.38;4.93;;;5.60;1.00;;;;;;5070916;28;20412;-58
2022/11/27 05:22:47;;;;;;;11.43;5.15;;;5.70;1.00;;;;;;5070691;28;20609;-59
2022/11/27 05:25:13;;;;;;;8.27;4.55;;;5.70;1.00;;;;;;5070597;28;20460;-57
2022/11/27 05:27:41;;;;;;;11.27;5.25;;;5.70;1.00;;;;;;5070463;28;20787;-59
2022/11/27 05:30:09;;;;;;;9.35;5.40;;;5.70;1.00;;;;;;5070481;28;20427;-58
2022/11/27 05:32:35;;;;;;;10.57;5.30;;;5.80;1.00;;;;;;5070784;28;20408;-58
2022/11/27 05:35:02;;;;;;;10.18;5.30;;;5.70;1.00;;;;;;5070570;28;20416;-59
2022/11/27 05:37:29;;;;;;;11.27;5.45;;;5.70;1.00;;;;;;5070421;28;20411;-59
2022/11/27 05:39:55;;;;;;;10.80;5.35;;;5.70;1.00;;;;;;5070581;28;20412;-59
2022/11/27 05:42:22;;;;;;;10.88;4.97;;;5.80;1.00;;;;;;5070500;28;20476;-59
2022/11/27 05:44:50;;;;;;;11.50;5.57;;;5.70;1.00;;;;;;5070500;28;20423;-59
2022/11/27 05:47:17;;;;;;;10.43;5.80;;;5.80;1.00;;;;;;5070106;28;20415;-59
2022/11/27 05:49:43;;;;;;;10.98;5.20;;;5.80;1.00;;;;;;5070519;28;20407;-59
2022/11/27 05:52:10;;;;;;;10.00;5.47;;;5.80;1.00;;;;;;5070465;28;20820;-58
2022/11/27 05:54:36;;;;;;;9.27;5.00;;;5.90;1.00;;;;;;5070296;28;20828;-59
2022/11/27 05:57:03;;;;;;;9.57;5.10;;;5.90;1.00;;;;;;5070221;28;21048;-59
2022/11/27 05:59:30;;;;;;;9.75;4.97;;;5.90;1.00;;;;;;5070158;28;20905;-59
2022/11/27 06:01:58;;;;;;;10.40;5.25;;;5.90;1.00;;;;;;5070172;28;20408;-58
2022/11/27 06:04:24;;;;;;;10.63;5.57;;;5.90;1.00;;;;;;5070288;28;20415;-56
2022/11/27 06:06:51;;;;;;;9.68;5.60;;;5.90;1.00;;;;;;5070093;28;20446;-59
2022/11/27 06:09:18;;;;;;;9.23;5.22;;;5.90;1.00;;;;;;5070123;28;20407;-59
2022/11/27 06:11:45;;;;;;;9.40;5.32;;;5.80;1.00;;;;;;5070394;28;20790;-57
2022/11/27 06:14:11;;;;;;;11.80;5.78;;;5.90;1.00;;;;;;5070020;28;20415;-59
2022/11/27 06:16:38;;;;;;;9.98;5.63;;;6.00;1.00;;;;;;5070081;28;20411;-59
2022/11/27 06:19:07;;;;;;;9.52;5.38;;;5.90;1.00;;;;;;5070186;28;20419;-60
2022/11/27 06:21:34;;;;;;;9.88;5.43;;;5.90;1.00;;;;;;5070179;28;20414;-59
2022/11/27 06:24:02;;;;;;;8.73;5.50;;;5.90;1.00;;;;;;5069955;28;20419;-58
2022/11/27 06:26:30;;;;;;;10.57;5.35;;;6.00;1.00;;;;;;5070053;28;20419;-60
2022/11/27 06:28:58;;;;;;;12.48;5.60;;;6.00;1.00;;;;;;5071971;28;20468;-59
2022/11/27 06:31:27;;;;;;;10.07;5.60;;;5.90;1.00;;;;;;5073750;28;20829;-60
2022/11/27 06:33:55;;;;;;;9.25;5.28;;;6.00;1.00;;;;;;5074035;28;20465;-59
2022/11/27 06:36:24;;;;;;;10.57;5.25;;;6.00;1.00;;;;;;5073420;28;20407;-59
2022/11/27 06:38:51;;;;;;;10.90;5.57;;;6.00;1.00;;;;;;5073734;28;20775;-58
2022/11/27 06:41:19;;;;;;;10.23;5.63;;;6.10;1.00;;;;;;5073821;28;20434;-60
2022/11/27 06:43:46;;;;;;;9.57;5.13;;;6.00;1.00;;;;;;5073841;28;20418;-59
2022/11/27 06:46:15;;;;;;;10.43;5.70;;;6.00;1.00;;;;;;5073486;28;20821;-59
2022/11/27 06:48:43;;;;;;;10.75;5.60;;;6.00;1.00;;;;;;5073689;28;20412;-59
2022/11/27 06:51:12;;;;;;;10.77;5.95;;;6.10;1.00;;;;;;5073341;28;20478;-59
2022/11/27 06:53:41;;;;;;;12.02;6.18;;;6.10;1.00;;;;;;5073770;28;20502;-57
2022/11/27 06:56:11;;;;;;;8.50;5.93;;;6.10;1.00;;;;;;5073290;28;20476;-60
2022/11/27 06:58:37;;;;;;;10.38;5.85;;;6.00;1.00;;;;;;5073391;28;20419;-60
2022/11/27 07:01:07;;;;;;;11.40;6.07;;;6.10;1.00;;;;;;5072915;28;20458;-60
2022/11/27 07:03:34;;;;;;;10.25;6.30;;;6.10;1.00;;;;;;5073176;28;20411;-60
2022/11/27 07:06:02;;;;;;;11.63;5.93;;;6.00;1.00;;;;;;5073070;28;20457;-60
2022/11/27 07:08:29;;;;;;;10.00;6.10;;;6.10;1.00;;;;;;5073253;28;20423;-58
2022/11/27 07:11:02;;;;;;;14.33;6.90;;;6.20;1.00;;;;;;5073017;28;20423;-57
2022/11/27 07:13:29;;;;;;;12.02;6.38;;;6.20;1.00;;;;;;5073352;28;20412;-60
2022/11/27 07:15:59;;;;;;;12.85;6.90;;;6.00;1.00;;;;;;5072614;28;20416;-59
2022/11/27 07:18:26;;;;;;;10.67;5.93;;;6.10;1.00;;;;;;5073006;28;20883;-59
2022/11/27 07:20:53;;;;;;;10.63;6.50;;;6.20;1.00;;;;;;5072726;28;20412;-59
2022/11/27 07:23:19;;;;;;;9.00;6.13;;;6.10;1.00;;;;;;5073124;28;20557;-59
2022/11/27 07:25:46;;;;;;;10.35;6.13;;;6.20;1.00;;;;;;5072812;28;20416;-60
2022/11/27 07:28:14;;;;;;;10.50;5.95;;;6.10;1.00;;;;;;5072800;28;20411;-59
2022/11/27 07:30:41;;;;;;;10.07;5.95;;;6.10;1.00;;;;;;5072679;28;20431;-59
2022/11/27 07:33:07;;;;;;;12.88;6.45;;;6.20;1.00;;;;;;5073081;28;20423;-60
2022/11/27 07:35:34;;;;;;;10.68;5.45;;;6.10;1.00;;;;;;5072381;28;20408;-59
2022/11/27 07:38:01;;;;;;;9.77;5.95;;;6.20;1.00;;;;;;5071895;28;20465;-58
2022/11/27 07:40:27;;;;;;;12.43;6.00;;;6.30;1.00;;;;;;5072242;28;20419;-59
2022/11/27 07:42:54;;;;;;;10.90;5.68;;;6.30;1.00;;;;;;5072514;28;20411;-57
2022/11/27 07:45:22;;;;;;;9.57;5.85;;;6.30;1.00;;;;;;5072341;28;20902;-59
2022/11/27 07:47:49;;;;;;;13.00;6.10;;;6.40;1.00;;;;;;5072269;28;20886;-60
2022/11/27 07:50:15;;;;;;;8.68;5.10;;;6.40;1.00;;;;;;5072449;28;20419;-59
2022/11/27 07:52:42;;;;;;;8.30;5.30;;;6.50;1.00;;;;;;5072309;28;20427;-59
2022/11/27 07:55:09;;;;;;;11.30;5.65;;;6.50;1.00;;;;;;5072429;28;20414;-59
2022/11/27 07:57:36;;;;;;;10.30;5.45;;;6.50;1.00;;;;;;5071848;28;20507;-60
2022/11/27 08:00:03;;;;;;;9.60;5.68;;;6.50;1.00;;;;;;5072128;28;20478;-60
2022/11/27 08:02:31;;;;;;;10.98;5.45;;;6.50;1.00;;;;;;5072138;28;20439;-59
2022/11/27 08:04:58;;;;;;;13.65;5.50;;;6.50;1.00;;;;;;5072310;28;20412;-59
2022/11/27 08:07:27;;;;;;;11.07;5.22;;;6.60;1.00;;;;;;5071854;28;20786;-59
2022/11/27 08:09:53;;;;;;;10.15;4.80;;;6.60;1.00;;;;;;5071998;28;20420;-59
2022/11/27 08:12:20;;;;;;;9.35;5.38;;;6.60;1.00;;;;;;5071813;28;20434;-60
2022/11/27 08:14:47;;;;;;;9.10;4.72;;;6.60;1.00;;;;;;5071806;28;20419;-60
2022/11/27 08:17:13;;;;;;;8.00;4.57;;;6.70;1.00;;;;;;5071867;28;20473;-60
2022/11/27 08:19:41;;;;;;;7.80;5.00;;;6.80;1.00;;;;;;5072119;28;20407;-60
2022/11/27 08:22:12;;;;;;;8.07;4.63;;;6.80;1.00;;;;;;5071739;28;20411;-60
2022/11/27 08:24:41;;;;;;;10.05;5.07;;;6.80;1.00;;;;;;5071639;28;20791;-60
2022/11/27 08:27:07;;;;;;;9.30;4.70;;;6.90;1.00;;;;;;5071391;28;20893;-60
2022/11/27 08:29:34;;;;;;;9.80;4.72;;;6.90;1.00;;;;;;5071660;28;20415;-60
2022/11/27 08:32:01;;;;;;;9.00;4.53;;;6.90;1.00;;;;;;5071506;28;20481;-60
2022/11/27 08:34:27;;;;;;;9.57;4.47;;;7.10;1.00;;;;;;5071574;28;20424;-59
2022/11/27 08:36:55;;;;;;;8.45;4.30;;;7.20;99.90;;;;;;5071314;28;20483;-60
2022/11/27 08:39:22;;;;;;;9.30;4.77;;;7.30;99.90;;;;;;5071448;28;20917;-60
2022/11/27 08:41:49;;;;;;;8.85;4.38;;;7.30;99.90;;;;;;5071497;28;21136;-61
2022/11/27 08:44:15;;;;;;;6.95;4.03;;;7.30;99.90;;;;;;5071431;28;20801;-60
2022/11/27 08:46:43;;;;;;;9.77;4.45;;;7.40;99.90;;;;;;5071184;28;20809;-60
2022/11/27 08:49:10;;;;;;;7.00;4.30;;;7.50;99.90;;;;;;5071225;28;20825;-60
2022/11/27 08:51:36;;;;;;;6.70;4.05;;;7.50;99.90;;;;;;5070484;28;20771;-60
2022/11/27 08:54:05;;;;;;;8.18;3.75;;;7.50;99.90;;;;;;5070998;28;20416;-60
2022/11/27 08:56:31;;;;;;;8.07;3.90;;;7.70;99.90;;;;;;5071205;28;20465;-57
2022/11/27 08:58:58;;;;;;;6.70;4.10;;;7.70;16.00;;;;;;5071111;28;20490;-60
2022/11/27 09:01:27;;;;;;;6.80;3.80;;;7.70;69.60;;;;;;5071118;28;20415;-60
2022/11/27 09:03:54;;;;;;;7.97;3.80;;;7.70;28.00;;;;;;5071047;28;20415;-56
2022/11/27 09:06:22;;;;;;;6.60;3.83;;;7.90;1.00;;;;;;5070801;28;20422;-60
2022/11/27 09:08:49;;;;;;;7.00;3.50;;;7.90;1.00;;;;;;5070894;28;20414;-56
2022/11/27 09:11:19;;;;;;;6.43;3.85;;;7.90;99.90;;;;;;5071036;28;20431;-58
2022/11/27 09:13:46;;;;;;;6.35;3.60;;;7.90;99.90;;;;;;5070814;28;20407;-59
2022/11/27 09:16:15;;;;;;;6.75;3.70;;;8.00;99.90;;;;;;5070879;28;20426;-60
2022/11/27 09:18:44;;;;;;;7.57;3.90;;;8.20;99.90;;;;;;5070679;28;20473;-60
2022/11/27 09:21:12;;;;;;;6.53;3.80;;;8.20;21.30;;;;;;5070796;28;20408;-58
2022/11/27 09:23:39;;;;;;;7.13;3.55;;;8.20;99.90;;;;;;5070446;28;20407;-58
2022/11/27 09:26:08;;;;;;;5.82;3.70;;;8.20;99.90;;;;;;5070656;28;20767;-60
2022/11/27 09:28:37;;;;;;;7.07;3.50;;;8.20;1.00;;;;;;5070720;28;20447;-60
2022/11/27 09:31:06;;;;;;;5.97;3.55;;;8.40;99.90;;;;;;5070534;28;20468;-60
2022/11/27 09:33:34;;;;;;;7.60;3.23;;;8.30;1.00;;;;;;5071797;28;20261;-59
2022/11/27 09:36:04;;;;;;;7.37;3.17;;;8.20;1.00;;;;;;5071701;28;20279;-58
2022/11/27 09:38:32;;;;;;;7.43;3.00;;;8.20;1.00;;;;;;5072224;28;20209;-60
2022/11/27 09:41:05;;;;;;;7.10;3.88;;;8.20;99.90;;;;;;5070784;28;20462;-60
2022/11/27 09:43:41;;;;;;;7.13;3.60;;;8.20;1.00;;;;;;5070683;28;20415;-59
2022/11/27 09:46:16;;;;;;;5.97;3.58;;;8.20;99.90;;;;;;5069926;28;20531;-60
2022/11/27 09:48:46;;;;;;;7.80;3.50;;;8.30;47.30;;;;;;5070763;28;20447;-60
2022/11/27 09:51:22;;;;;;;8.60;4.07;;;8.40;99.90;;;;;;5070215;28;20407;-60
2022/11/27 09:53:56;;;;;;;9.00;4.50;;;8.50;99.90;;;;;;5070472;28;20418;-59
2022/11/27 09:56:23;;;;;;;6.63;3.75;;;8.60;1.00;;;;;;5070266;28;20420;-60
2022/11/27 09:58:57;;;;;;;6.27;3.77;;;8.70;99.90;;;;;;5070513;28;20485;-60
2022/11/27 10:01:27;;;;;;;6.30;3.70;;;8.70;99.90;;;;;;5070330;28;20412;-60
2022/11/27 10:03:55;;;;;;;7.60;4.03;;;8.70;1.00;;;;;;5074143;28;20415;-60
2022/11/27 10:06:27;;;;;;;5.90;3.75;;;8.80;99.90;;;;;;5074229;28;20472;-60
2022/11/27 10:09:06;;;;;;;9.25;4.82;;;8.90;99.90;;;;;;5074390;28;20495;-59
2022/11/27 10:11:41;;;;;;;6.70;4.20;;;9.00;16.30;;;;;;5074282;28;20426;-60
2022/11/27 10:14:26;;;;;;;7.82;3.90;;;9.00;1.00;;;;;;5074364;28;20438;-60
2022/11/27 10:16:59;;;;;;;5.97;3.60;;;8.90;99.90;;;;;;5074079;28;20419;-60
2022/11/27 10:19:34;;;;;;;6.22;3.80;;;8.90;99.90;;;;;;5074250;28;20422;-60
2022/11/27 10:22:08;;;;;;;7.25;3.78;;;9.10;99.90;;;;;;5074309;28;20430;-61
2022/11/27 10:24:44;;;;;;;7.07;3.85;;;9.00;99.90;;;;;;5074794;28;20420;-60
2022/11/27 10:27:19;;;;;;;6.72;3.45;;;9.00;99.90;;;;;;5074138;28;20824;-57
2022/11/27 10:29:51;;;;;;;7.30;3.83;;;9.30;99.90;;;;;;5073827;28;20465;-60
2022/11/27 10:32:20;;;;;;;5.63;3.85;;;9.40;99.90;;;;;;5074200;28;20423;-60
2022/11/27 10:34:52;;;;;;;7.28;4.03;;;9.60;21.80;;;;;;5074132;28;20411;-60
2022/11/27 10:37:23;;;;;;;6.60;3.58;;;9.40;1.00;;;;;;5073764;28;20436;-60
2022/11/27 10:39:57;;;;;;;6.43;4.13;;;9.40;1.00;;;;;;5074014;28;20408;-60
2022/11/27 10:42:29;;;;;;;6.38;3.70;;;9.30;1.00;;;;;;5073923;28;20800;-60
2022/11/27 10:45:00;;;;;;;4.75;3.40;;;9.50;1.00;;;;;;5073794;28;20822;-60
2022/11/27 10:47:28;;;;;;;7.05;4.03;;;9.60;1.00;;;;;;5073618;28;20423;-59
2022/11/27 10:49:56;;;;;;;7.38;3.58;;;9.70;1.00;;;;;;5073861;28;20411;-58
2022/11/27 10:52:22;;;;;;;6.28;3.60;;;9.90;1.00;;;;;;5073487;28;20424;-60
2022/11/27 10:54:54;;;;;;;6.10;3.78;;;10.10;1.00;;;;;;5073477;28;20437;-60
2022/11/27 10:57:37;;;;;;;5.97;3.65;;;10.10;1.00;;;;;;5072884;28;20416;-61
2022/11/27 11:00:12;;;;;;;5.13;3.25;;;10.00;1.00;;;;;;5059995;28;20422;-60
2022/11/27 11:02:39;;;;;;;6.88;3.97;;;10.00;1.00;;;;;;5072987;28;20962;-60
2022/11/27 11:05:24;;;;;;;6.32;3.83;;;9.80;1.00;;;;;;5073162;28;20423;-60
2022/11/27 11:08:00;;;;;;;7.90;3.50;;;9.70;1.00;;;;;;5072474;28;20412;-60
2022/11/27 11:10:30;;;;;;;6.70;3.75;;;9.60;1.00;;;;;;5072631;28;20428;-62
2022/11/27 11:13:15;;;;;;;8.00;3.42;;;9.50;1.00;;;;;;5072386;28;20541;-62
2022/11/27 11:15:51;;;;;;;5.85;3.40;;;9.60;1.00;;;;;;5071756;28;20415;-62
2022/11/27 11:18:18;;;;;;;5.60;3.20;;;9.80;1.00;;;;;;5072550;28;20420;-61
2022/11/27 11:20:48;;;;;;;13.23;7.40;;;9.50;1.00;;;;;;5072619;28;20416;-61
2022/11/27 11:23:25;;;;;;;5.13;3.63;;;9.60;1.00;;;;;;5072359;28;20472;-61
2022/11/27 11:25:55;;;;;;;6.00;3.60;;;9.80;1.00;;;;;;5072329;28;20416;-61
2022/11/27 11:28:23;;;;;;;5.65;3.22;;;9.70;1.00;;;;;;5072020;28;20914;-63
2022/11/27 11:30:59;;;;;;;6.17;3.10;;;9.60;1.00;;;;;;5072474;28;20416;-64
2022/11/27 11:33:26;;;;;;;7.15;3.33;;;9.60;1.00;;;;;;5072270;28;20945;-62
2022/11/27 11:35:56;;;;;;;6.07;3.30;;;9.50;1.00;;;;;;5071964;28;20465;-62
2022/11/27 11:38:28;;;;;;;5.90;2.80;;;9.50;1.00;;;;;;5071955;28;20473;-63
2022/11/27 11:41:01;;;;;;;6.20;3.20;;;9.60;1.00;;;;;;5072647;28;20419;-62
2022/11/27 11:43:30;;;;;;;7.05;3.45;;;9.50;1.00;;;;;;5071583;28;20419;-62
2022/11/27 11:46:07;;;;;;;6.30;3.45;;;9.40;1.00;;;;;;5071418;28;20420;-62
2022/11/27 11:48:35;;;;;;;6.85;3.20;;;9.50;1.00;;;;;;5071820;28;20416;-62
2022/11/27 11:51:09;;;;;;;5.47;3.22;;;9.60;1.00;;;;;;5071861;28;20500;-62
2022/11/27 11:53:38;;;;;;;5.82;3.35;;;9.50;1.00;;;;;;5072063;28;20434;-62
2022/11/27 11:56:18;;;;;;;6.45;3.40;;;9.50;1.00;;;;;;5071763;28;20422;-62
2022/11/27 11:58:53;;;;;;;7.20;3.42;;;9.60;1.00;;;;;;5071568;28;20825;-65
2022/11/27 12:01:44;;;;;;;7.10;3.13;;;9.70;1.00;;;;;;5064294;28;20422;-65
2022/11/27 12:04:29;;;;;;;6.72;3.10;;;9.60;1.00;;;;;;5064808;28;20894;-65
2022/11/27 12:07:02;;;;;;;5.82;3.30;;;9.50;1.00;;;;;;5071312;28;20416;-61
2022/11/27 12:09:43;;;;;;;6.15;3.15;;;9.50;1.00;;;;;;5071653;28;20783;-63
2022/11/27 12:12:21;;;;;;;5.75;3.03;;;9.50;1.00;;;;;;5071466;28;21050;-64
2022/11/27 12:14:52;;;;;;;3.85;2.63;;;9.40;1.00;;;;;;5071571;28;20418;-64
2022/11/27 12:17:39;;;;;;;5.13;3.03;;;9.40;1.00;;;;;;5071205;28;20415;-63
2022/11/27 12:20:16;;;;;;;5.30;3.03;;;9.30;1.00;;;;;;5071328;28;20423;-63
2022/11/27 12:23:23;;;;;;;9.52;5.57;;;9.30;1.00;;;;;;5071544;28;20415;-63
2022/11/27 12:25:58;;;;;;;8.15;4.18;;;9.40;1.00;;;;;;5070512;28;20415;-62
2022/11/27 12:28:43;;;;;;;6.50;3.72;;;9.40;1.00;;;;;;5071130;28;20442;-64
2022/11/27 12:31:20;;;;;;;5.55;3.30;;;9.50;1.00;;;;;;5064798;28;20524;-64
2022/11/27 12:34:00;;;;;;;5.43;3.40;;;9.50;6.10;;;;;;5051306;28;20931;-63
2022/11/27 12:36:41;;;;;;;5.50;2.95;;;9.40;1.00;;;;;;5049864;28;20776;-63
2022/11/27 12:39:19;;;;;;;4.53;2.60;;;9.30;29.80;;;;;;5050375;28;20413;-63
2022/11/27 12:41:58;;;;;;;5.22;2.70;;;9.30;7.60;;;;;;5051454;28;20413;-63
2022/11/27 12:44:33;;;;;;;6.10;3.10;;;9.20;83.10;;;;;;5051459;28;20424;-63
2022/11/27 12:47:05;;;;;;;5.82;2.97;;;9.10;52.10;;;;;;5050882;28;20925;-63
2022/11/27 12:49:39;;;;;;;4.90;2.90;;;9.00;99.90;;;;;;5050983;28;20421;-63
2022/11/27 12:52:13;;;;;;;5.10;2.80;;;9.20;99.90;;;;;;5051847;28;20418;-63
2022/11/27 12:54:45;;;;;;;4.32;2.85;;;9.10;29.90;;;;;;5051504;28;20436;-63
2022/11/27 12:57:18;;;;;;;4.82;2.70;;;9.20;1.00;;;;;;5050551;28;20930;-63
2022/11/27 12:59:49;;;;;;;4.72;2.50;;;9.20;1.00;;;;;;5060013;28;20899;-63
2022/11/27 13:02:27;;;;;;;5.07;2.60;;;9.30;1.00;;;;;;5071018;28;20410;-64
2022/11/27 13:05:00;;;;;;;4.57;2.92;;;9.40;1.00;;;;;;5070759;28;20416;-61
2022/11/27 13:07:37;;;;;;;6.70;2.60;;;9.40;1.00;;;;;;5070776;28;20414;-60
2022/11/27 13:10:10;;;;;;;4.30;2.78;;;9.30;1.00;;;;;;5070508;28;20502;-62
2022/11/27 13:12:42;;;;;;;3.88;2.58;;;9.40;1.00;;;;;;5071119;28;20427;-62
2022/11/27 13:15:20;;;;;;;3.65;2.58;;;9.50;1.00;;;;;;5070900;28;20412;-61